Octavia, Nebraska
Current Conditions -  °F | °C
As of 8:15 PM on Thursday 20 Nov 2014 (Local Time) from KOLU Reporting Station
Clear Clear  
Wind Chill:   Ceiling: Unl
Heat Index: 16°   Visibility: 10mi
Dew Point: 10°   Wind: 5mph
Humidity: 79%   Direction: 100°E
Pressure: 30.19"   Gusts: NA
Location:  41.1947°N, 97.127°W
Report Text: KOLU 210215Z AUTO 10004KT 10SM CLR M09/M12 A3019 RMK AO1
Loading
Personal Weather Stations






























Interactive Weather Map New forecast layout! Learn more

10-Day Weather Forecast

Advertisements
Track Severe Weather on mobile